Time;durP1;ratioP1;P1;durP2;ratioP2;P2;SDS_P1;SDS_P2;PMS_P1;PMS_P2;Temp;Humidity;BMP_temperature;BMP_pressure;BME280_temperature;BME280_humidity;BME280_pressure;Samples;Min_cycle;Max_cycle;Signal;HPM_P1;HPM_P2
2022/06/07 00:01:24;;;;;;;2.15;1.50;;;20.30;56.40;;;;;;5076718;28;20024;-62
2022/06/07 00:03:50;;;;;;;2.20;1.40;;;20.30;56.60;;;;;;5075329;28;20968;-62
2022/06/07 00:06:16;;;;;;;2.08;1.25;;;20.20;57.00;;;;;;5087865;28;20036;-62
2022/06/07 00:08:41;;;;;;;2.33;1.30;;;20.20;57.20;;;;;;5070789;28;20028;-62
2022/06/07 00:11:07;;;;;;;2.75;1.42;;;20.20;57.40;;;;;;5080826;28;20103;-62
2022/06/07 00:13:33;;;;;;;3.55;1.38;;;20.20;57.50;;;;;;5077119;28;20029;-62
2022/06/07 00:15:59;;;;;;;2.58;1.25;;;20.20;57.70;;;;;;5078832;28;20031;-61
2022/06/07 00:18:24;;;;;;;1.92;1.35;;;20.20;58.00;;;;;;5082194;28;20028;-61
2022/06/07 00:20:50;;;;;;;6.95;1.60;;;20.10;58.40;;;;;;5080536;28;20029;-62
2022/06/07 00:23:18;;;;;;;2.80;1.60;;;20.10;58.70;;;;;;5074481;28;20048;-62
2022/06/07 00:25:48;;;;;;;3.47;1.83;;;20.10;58.90;;;;;;5077202;28;20080;-61
2022/06/07 00:28:14;;;;;;;1.58;1.48;;;20.10;59.00;;;;;;5079703;28;20711;-61
2022/06/07 00:30:40;;;;;;;1.65;1.25;;;20.00;58.70;;;;;;5070581;28;20024;-61
2022/06/07 00:35:36;;;;;;;3.88;1.55;;;20.00;58.70;;;;;;5047171;28;20041;-63
2022/06/07 00:38:02;;;;;;;2.80;1.50;;;19.90;59.00;;;;;;5056713;28;20025;-62
2022/06/07 00:40:28;;;;;;;2.63;1.80;;;19.80;59.10;;;;;;5062220;28;20044;-63
2022/06/07 00:42:55;;;;;;;4.55;1.70;;;19.80;59.10;;;;;;5055864;28;20040;-63
2022/06/07 00:45:22;;;;;;;5.15;2.00;;;19.70;59.20;;;;;;5053186;28;20033;-62
2022/06/07 00:47:48;;;;;;;2.42;1.60;;;19.60;59.40;;;;;;5039570;28;20025;-62
2022/06/07 00:50:44;;;;;;;2.50;1.60;;;19.60;59.50;;;;;;5062943;28;20037;-62
2022/06/07 00:53:26;;;;;;;3.10;1.60;;;19.50;61.20;;;;;;5051136;28;20049;-63
2022/06/07 00:55:52;;;;;;;4.50;1.75;;;19.40;60.80;;;;;;5058587;28;20028;-63
2022/06/07 00:58:18;;;;;;;3.10;1.60;;;19.40;60.10;;;;;;5057784;28;20040;-62
2022/06/07 01:00:44;;;;;;;1.75;1.55;;;19.40;60.40;;;;;;5063136;28;20024;-62
2022/06/07 01:03:10;;;;;;;1.63;1.40;;;19.30;60.50;;;;;;5055574;28;20071;-63
2022/06/07 01:05:35;;;;;;;2.25;1.60;;;19.30;60.90;;;;;;5058702;28;20025;-63
2022/06/07 01:10:48;;;;;;;4.00;1.70;;;19.30;60.90;;;;;;5061703;28;20048;-63
2022/06/07 01:13:16;;;;;;;4.18;1.80;;;19.20;61.00;;;;;;5061945;28;20056;-62
2022/06/07 01:15:44;;;;;;;9.10;3.17;;;19.20;61.20;;;;;;5058828;28;20059;-63
2022/06/07 01:18:10;;;;;;;3.28;1.70;;;19.20;61.40;;;;;;5062224;28;20028;-63
2022/06/07 01:20:36;;;;;;;4.55;1.70;;;19.10;61.50;;;;;;5057458;28;20058;-62
2022/06/07 01:23:01;;;;;;;2.63;1.60;;;19.10;61.50;;;;;;5059150;28;20071;-63
2022/06/07 01:25:27;;;;;;;3.17;1.27;;;19.00;61.40;;;;;;5055877;28;20025;-62
2022/06/07 01:27:53;;;;;;;2.28;1.38;;;19.00;61.90;;;;;;5053073;28;20029;-62
2022/06/07 01:30:19;;;;;;;3.38;1.42;;;19.00;61.80;;;;;;5056765;28;20045;-63
2022/06/07 01:32:44;;;;;;;3.13;1.40;;;19.00;61.90;;;;;;5050007;28;20022;-63
2022/06/07 01:35:10;;;;;;;3.97;1.30;;;18.90;61.70;;;;;;5055955;28;20106;-63
2022/06/07 01:37:36;;;;;;;2.20;1.40;;;18.90;61.90;;;;;;5058523;28;20038;-62
2022/06/07 01:42:46;;;;;;;2.30;1.40;;;18.80;61.40;;;;;;5047943;28;20474;-62
2022/06/07 01:45:12;;;;;;;1.60;1.20;;;18.80;61.30;;;;;;5045742;28;20060;-62
2022/06/07 01:47:38;;;;;;;4.47;1.58;;;18.80;61.50;;;;;;5061905;28;20028;-62
2022/06/07 01:50:05;;;;;;;1.98;1.40;;;18.80;61.40;;;;;;5052379;28;20037;-63
2022/06/07 01:52:33;;;;;;;1.70;1.27;;;18.70;61.70;;;;;;5058253;28;20067;-63
2022/06/07 01:55:00;;;;;;;1.60;1.35;;;18.70;61.70;;;;;;5053138;28;20057;-62
2022/06/07 01:57:26;;;;;;;1.48;1.20;;;18.70;61.60;;;;;;5050845;28;20021;-63
2022/06/07 01:59:52;;;;;;;3.72;1.20;;;18.60;61.80;;;;;;5051009;28;20051;-62
2022/06/07 02:02:18;;;;;;;1.42;1.20;;;18.70;61.70;;;;;;5051273;28;20033;-63
2022/06/07 02:04:44;;;;;;;1.30;1.20;;;18.60;61.90;;;;;;5049363;28;20029;-63
2022/06/07 02:07:12;;;;;;;3.85;1.42;;;18.60;62.20;;;;;;5057671;28;20040;-62
2022/06/07 02:09:38;;;;;;;3.50;1.45;;;18.60;62.50;;;;;;5064183;28;20051;-62
2022/06/07 02:12:04;;;;;;;1.40;1.30;;;18.60;62.70;;;;;;5058721;28;20033;-62
2022/06/07 02:14:31;;;;;;;1.73;1.25;;;18.60;62.80;;;;;;5057842;28;20025;-63
2022/06/07 02:16:57;;;;;;;2.28;1.40;;;18.60;62.90;;;;;;5050890;28;20068;-62
2022/06/07 02:19:22;;;;;;;4.00;1.40;;;18.70;63.10;;;;;;5055306;28;20037;-61
2022/06/07 02:21:48;;;;;;;5.25;1.30;;;18.70;63.00;;;;;;5047456;28;20032;-62
2022/06/07 02:24:14;;;;;;;1.98;1.20;;;18.70;63.00;;;;;;5059646;28;20033;-61
2022/06/07 02:26:53;;;;;;;3.15;1.25;;;18.70;63.00;;;;;;5057528;28;20033;-62
2022/06/07 02:29:21;;;;;;;2.38;1.30;;;18.70;63.00;;;;;;5056210;28;20092;-61
2022/06/07 02:31:53;;;;;;;1.77;1.25;;;18.70;62.70;;;;;;5048161;28;20021;-61
2022/06/07 02:34:20;;;;;;;2.45;1.30;;;18.70;62.90;;;;;;5066468;28;20087;-61
2022/06/07 02:36:49;;;;;;;2.33;1.35;;;18.60;62.80;;;;;;5062987;28;20021;-61
2022/06/07 02:39:15;;;;;;;2.08;1.10;;;18.60;63.30;;;;;;5067938;28;20043;-61
2022/06/07 02:41:42;;;;;;;2.10;1.20;;;18.60;63.10;;;;;;5063869;28;20017;-62
2022/06/07 02:44:08;;;;;;;2.03;1.30;;;18.60;63.00;;;;;;5046315;28;20045;-62
2022/06/07 02:46:34;;;;;;;4.50;1.30;;;18.60;63.10;;;;;;5059305;28;20032;-61
2022/06/07 02:48:59;;;;;;;1.42;1.20;;;18.60;63.20;;;;;;5057382;28;20024;-62
2022/06/07 02:51:26;;;;;;;1.67;1.15;;;18.60;63.40;;;;;;5068443;28;20516;-61
2022/06/07 02:53:52;;;;;;;1.75;1.33;;;18.60;64.00;;;;;;5058202;28;20024;-62
2022/06/07 02:56:18;;;;;;;7.07;1.38;;;18.60;63.10;;;;;;5065929;28;20082;-61
2022/06/07 02:58:43;;;;;;;2.65;1.20;;;18.60;63.30;;;;;;5062295;28;20080;-62
2022/06/07 03:01:09;;;;;;;2.45;1.60;;;18.60;63.40;;;;;;5060501;28;20051;-61
2022/06/07 03:03:35;;;;;;;3.88;1.42;;;18.60;63.40;;;;;;5063518;28;20041;-61
2022/06/07 03:06:01;;;;;;;2.38;1.30;;;18.60;63.50;;;;;;5067109;28;20143;-62
2022/06/07 03:08:26;;;;;;;1.75;1.15;;;18.60;63.50;;;;;;5062663;28;20022;-62
2022/06/07 03:10:52;;;;;;;2.17;1.20;;;18.60;63.30;;;;;;5044380;28;20083;-62
2022/06/07 03:13:18;;;;;;;3.55;1.20;;;18.60;63.10;;;;;;5065028;28;20053;-62
2022/06/07 03:15:45;;;;;;;1.30;1.20;;;18.60;62.90;;;;;;5058279;28;20044;-61
2022/06/07 03:18:11;;;;;;;2.95;1.40;;;18.60;62.90;;;;;;5063161;28;20021;-61
2022/06/07 03:20:37;;;;;;;2.25;1.23;;;18.50;62.80;;;;;;5073613;28;20107;-62
2022/06/07 03:23:03;;;;;;;3.75;1.10;;;18.50;62.80;;;;;;5070452;28;20056;-61
2022/06/07 03:25:29;;;;;;;2.88;1.10;;;18.50;63.10;;;;;;5062370;28;20040;-61
2022/06/07 03:27:55;;;;;;;1.60;1.15;;;18.40;63.10;;;;;;5066033;28;20032;-61
2022/06/07 03:30:21;;;;;;;3.85;1.10;;;18.40;63.10;;;;;;5059798;28;20033;-61
2022/06/07 03:32:47;;;;;;;4.57;1.20;;;18.40;63.00;;;;;;5065913;28;20029;-62
2022/06/07 03:35:14;;;;;;;4.05;1.40;;;18.40;63.00;;;;;;5061325;28;20135;-61
2022/06/07 03:37:40;;;;;;;3.05;1.25;;;18.30;62.90;;;;;;5065550;28;20024;-62
2022/06/07 03:40:08;;;;;;;2.83;1.05;;;18.30;62.80;;;;;;5059854;28;20187;-62
2022/06/07 03:42:34;;;;;;;1.55;1.00;;;18.20;63.20;;;;;;5064191;28;20036;-61
2022/06/07 03:45:00;;;;;;;0.98;0.98;;;18.20;63.40;;;;;;5060495;28;20037;-62
2022/06/07 03:47:26;;;;;;;2.15;1.60;;;18.20;63.80;;;;;;5061093;28;20036;-61
2022/06/07 03:49:51;;;;;;;0.80;0.80;;;18.20;64.00;;;;;;5059712;28;20159;-62
2022/06/07 03:52:17;;;;;;;1.00;0.93;;;18.20;64.20;;;;;;5036730;28;20033;-61
2022/06/07 03:54:44;;;;;;;2.53;1.20;;;18.20;64.30;;;;;;5055817;28;20025;-61
2022/06/07 03:57:11;;;;;;;3.65;1.40;;;18.20;64.20;;;;;;5055002;28;20083;-61
2022/06/07 03:59:37;;;;;;;1.02;1.00;;;18.20;64.20;;;;;;5060736;28;20028;-62
2022/06/07 04:02:07;;;;;;;1.35;0.93;;;18.30;64.10;;;;;;5057231;28;20025;-62
2022/06/07 04:04:34;;;;;;;1.17;1.02;;;18.20;63.90;;;;;;5060164;28;20043;-61
2022/06/07 04:09:44;;;;;;;;;;;18.30;64.00;;;;;;5052078;28;20048;-62
2022/06/07 04:12:13;;;;;;;2.10;0.85;;;18.40;63.80;;;;;;5049391;28;20364;-62
2022/06/07 04:14:43;;;;;;;2.15;0.90;;;18.40;63.40;;;;;;5057901;28;20067;-62
2022/06/07 04:17:11;;;;;;;2.33;1.08;;;18.30;63.60;;;;;;5057416;28;20502;-61
2022/06/07 04:19:38;;;;;;;1.15;0.70;;;18.40;63.60;;;;;;5062463;28;20032;-62
2022/06/07 04:22:04;;;;;;;2.20;1.08;;;18.40;63.60;;;;;;5057473;28;20081;-61
2022/06/07 04:24:31;;;;;;;2.13;1.00;;;18.40;63.60;;;;;;5045225;28;20147;-61
2022/06/07 04:26:57;;;;;;;1.88;0.90;;;18.30;63.70;;;;;;5057576;28;20025;-61
2022/06/07 04:29:24;;;;;;;2.22;1.00;;;18.40;64.00;;;;;;5057847;28;20373;-61
2022/06/07 04:31:50;;;;;;;0.98;0.80;;;18.40;63.50;;;;;;5062760;28;20024;-62
2022/06/07 04:34:18;;;;;;;2.03;0.95;;;18.30;63.60;;;;;;5049525;28;20059;-61
2022/06/07 04:36:44;;;;;;;2.42;1.00;;;18.30;63.80;;;;;;5064126;28;20028;-62
2022/06/07 04:39:11;;;;;;;1.40;0.93;;;18.30;63.90;;;;;;5056136;28;20045;-62
2022/06/07 04:41:37;;;;;;;1.27;0.90;;;18.30;63.80;;;;;;4985489;28;20511;-61
2022/06/07 04:44:03;;;;;;;4.03;1.35;;;18.30;63.90;;;;;;5057070;28;20036;-61
2022/06/07 04:46:29;;;;;;;1.33;0.88;;;18.30;64.00;;;;;;5055019;28;20041;-61
2022/06/07 04:48:55;;;;;;;3.47;0.90;;;18.30;64.00;;;;;;5040127;28;20032;-61
2022/06/07 04:51:27;;;;;;;1.45;0.85;;;18.30;63.90;;;;;;5061529;28;20079;-61
2022/06/07 04:53:54;;;;;;;3.60;0.80;;;18.30;63.90;;;;;;5058262;28;20558;-61
2022/06/07 04:56:32;;;;;;;1.95;1.20;;;18.30;63.50;;;;;;5047202;28;20039;-61
2022/06/07 04:59:00;;;;;;;1.02;0.80;;;18.30;63.90;;;;;;5057533;28;20032;-62
2022/06/07 05:01:34;;;;;;;1.55;0.95;;;18.30;63.70;;;;;;5058962;28;20033;-62
2022/06/07 05:04:00;;;;;;;;;;;18.30;64.20;;;;;;5050697;28;20033;-61
2022/06/07 05:06:35;;;;;;;1.15;0.77;;;18.40;63.70;;;;;;5054438;28;19915;-61
2022/06/07 05:09:04;;;;;;;1.95;1.00;;;18.30;64.10;;;;;;5059847;28;20017;-61
2022/06/07 05:11:31;;;;;;;1.58;0.90;;;18.30;63.70;;;;;;5053097;28;20053;-61
2022/06/07 05:13:58;;;;;;;1.00;0.75;;;18.30;63.70;;;;;;5055273;28;20064;-62
2022/06/07 05:16:24;;;;;;;1.45;0.70;;;18.30;63.30;;;;;;5052004;28;20029;-61
2022/06/07 05:18:51;;;;;;;4.68;0.80;;;18.30;63.60;;;;;;5060365;28;20024;-61
2022/06/07 05:21:19;;;;;;;4.10;0.85;;;18.30;63.70;;;;;;5044031;28;20040;-61
2022/06/07 05:23:45;;;;;;;1.50;0.80;;;18.30;63.70;;;;;;5050978;28;20036;-62
2022/06/07 05:26:23;;;;;;;1.15;0.70;;;18.30;63.50;;;;;;5063468;28;20021;-62
2022/06/07 05:28:49;;;;;;;1.80;0.70;;;18.30;64.00;;;;;;5059162;28;20547;-61
2022/06/07 05:31:15;;;;;;;2.30;0.98;;;18.30;63.60;;;;;;5054563;28;20029;-61
2022/06/07 05:33:41;;;;;;;1.52;0.80;;;18.30;63.40;;;;;;5054291;28;20203;-61
2022/06/07 05:36:07;;;;;;;1.05;0.75;;;18.40;63.50;;;;;;5061004;28;20051;-61
2022/06/07 05:38:33;;;;;;;1.33;0.60;;;18.30;63.30;;;;;;5056065;28;20055;-61
2022/06/07 05:41:05;;;;;;;1.05;0.60;;;18.30;63.30;;;;;;5051513;28;20025;-61
2022/06/07 05:43:33;;;;;;;2.35;0.80;;;18.30;63.40;;;;;;5055626;28;20052;-61
2022/06/07 05:45:59;;;;;;;0.82;0.57;;;18.30;63.70;;;;;;5053166;28;20048;-62
2022/06/07 05:48:25;;;;;;;2.28;0.65;;;18.40;63.80;;;;;;5055497;28;20570;-62
2022/06/07 05:50:51;;;;;;;3.97;0.80;;;18.40;63.60;;;;;;5055066;28;20064;-62
2022/06/07 05:53:18;;;;;;;0.82;0.70;;;18.40;63.90;;;;;;5055693;28;20060;-61
2022/06/07 05:55:44;;;;;;;2.38;0.70;;;18.40;63.80;;;;;;5059749;28;20025;-61
2022/06/07 05:58:10;;;;;;;1.17;0.63;;;18.40;64.00;;;;;;5054133;28;20043;-62
2022/06/07 06:00:38;;;;;;;1.40;0.82;;;18.50;64.30;;;;;;5056540;28;20559;-61
2022/06/07 06:03:05;;;;;;;1.23;0.88;;;18.50;63.90;;;;;;5057951;28;20033;-61
2022/06/07 06:05:32;;;;;;;0.70;0.68;;;18.50;63.80;;;;;;5055778;28;20025;-61
2022/06/07 06:10:41;;;;;;;1.50;0.70;;;18.50;63.40;;;;;;5058719;28;20108;-62
2022/06/07 06:13:07;;;;;;;0.57;0.52;;;18.50;63.10;;;;;;5057758;28;20036;-62
2022/06/07 06:15:33;;;;;;;1.70;0.77;;;18.50;63.00;;;;;;5054930;28;20021;-62
2022/06/07 06:18:01;;;;;;;1.17;0.77;;;18.50;62.90;;;;;;5058515;28;20395;-62
2022/06/07 06:20:27;;;;;;;3.70;0.70;;;18.50;63.40;;;;;;5048397;28;20064;-62
2022/06/07 06:22:53;;;;;;;1.40;0.60;;;18.50;62.80;;;;;;5044253;28;20036;-63
2022/06/07 06:25:18;;;;;;;1.38;0.73;;;18.50;62.70;;;;;;5055453;28;20040;-62
2022/06/07 06:27:44;;;;;;;0.77;0.70;;;18.40;62.90;;;;;;5057987;28;20055;-63
2022/06/07 06:30:12;;;;;;;0.73;0.60;;;18.40;63.40;;;;;;5045033;28;20108;-62
2022/06/07 06:32:38;;;;;;;1.52;0.80;;;18.40;63.50;;;;;;5038508;28;20032;-62
2022/06/07 06:35:04;;;;;;;1.48;0.80;;;18.40;63.90;;;;;;5035710;28;20052;-62
2022/06/07 06:37:30;;;;;;;0.90;0.90;;;18.50;63.90;;;;;;5045058;28;20033;-62
2022/06/07 06:39:56;;;;;;;2.03;0.68;;;18.50;64.30;;;;;;5039033;28;20051;-62
2022/06/07 06:42:22;;;;;;;1.60;0.70;;;18.60;64.10;;;;;;5042990;28;20029;-62
2022/06/07 06:44:47;;;;;;;1.42;0.60;;;18.60;64.20;;;;;;5053133;28;20046;-62
2022/06/07 06:47:15;;;;;;;1.42;0.93;;;18.70;64.30;;;;;;5051360;28;20029;-62
2022/06/07 06:49:44;;;;;;;1.05;0.60;;;18.70;63.90;;;;;;5037464;28;20025;-62
2022/06/07 06:52:10;;;;;;;3.75;0.80;;;18.80;63.80;;;;;;5057173;28;20037;-62
2022/06/07 06:54:38;;;;;;;1.67;0.70;;;18.90;64.10;;;;;;5055391;28;20026;-62
2022/06/07 06:57:04;;;;;;;1.98;0.80;;;18.90;64.10;;;;;;5055670;28;20032;-62
2022/06/07 06:59:31;;;;;;;2.35;0.90;;;18.90;64.10;;;;;;5052879;28;20048;-62
2022/06/07 07:01:57;;;;;;;2.50;0.93;;;19.00;64.00;;;;;;5045170;28;20060;-62
2022/06/07 07:04:23;;;;;;;1.58;0.77;;;19.00;63.60;;;;;;5054809;28;20033;-62
2022/06/07 07:06:49;;;;;;;4.85;1.00;;;19.10;63.90;;;;;;5056797;28;20032;-63
2022/06/07 07:09:17;;;;;;;1.42;0.60;;;19.10;63.20;;;;;;5051367;28;20040;-62
2022/06/07 07:11:49;;;;;;;1.75;0.60;;;19.20;63.10;;;;;;5048630;28;20070;-62
2022/06/07 07:14:15;;;;;;;1.70;0.70;;;19.20;63.10;;;;;;5050878;28;20083;-62
2022/06/07 07:16:44;;;;;;;2.72;0.70;;;19.20;63.00;;;;;;5044442;28;20025;-63
2022/06/07 07:19:11;;;;;;;3.28;0.90;;;19.30;62.70;;;;;;5057595;28;20037;-62
2022/06/07 07:21:40;;;;;;;5.13;0.80;;;19.40;62.70;;;;;;5057915;28;20390;-63
2022/06/07 07:24:13;;;;;;;1.05;0.73;;;19.40;62.80;;;;;;5062942;28;20044;-62
2022/06/07 07:26:43;;;;;;;2.42;0.52;;;19.50;62.40;;;;;;5042851;28;20060;-63
2022/06/07 07:29:14;;;;;;;0.90;0.68;;;19.60;62.40;;;;;;5011364;28;20036;-63
2022/06/07 07:31:40;;;;;;;0.95;0.60;;;19.60;62.10;;;;;;5053823;28;20040;-63
2022/06/07 07:34:09;;;;;;;2.42;0.63;;;19.70;62.00;;;;;;5063051;28;20059;-63
2022/06/07 07:36:37;;;;;;;1.20;0.90;;;19.70;61.20;;;;;;5063824;28;20024;-62
2022/06/07 07:39:04;;;;;;;3.17;1.20;;;19.70;60.50;;;;;;5052464;28;20037;-63
2022/06/07 07:41:33;;;;;;;1.58;0.60;;;19.70;60.10;;;;;;5061092;28;20063;-62
2022/06/07 07:44:01;;;;;;;0.75;0.70;;;19.70;60.80;;;;;;5055433;28;20045;-61
2022/06/07 07:46:29;;;;;;;2.10;1.02;;;19.70;61.20;;;;;;5059543;28;20076;-62
2022/06/07 07:48:56;;;;;;;0.60;0.60;;;19.80;61.60;;;;;;5054007;28;20044;-61
2022/06/07 07:51:30;;;;;;;1.90;0.73;;;20.00;62.40;;;;;;5058342;28;20028;-62
2022/06/07 07:53:58;;;;;;;1.50;0.60;;;20.00;62.50;;;;;;5051808;28;20092;-62
2022/06/07 07:56:25;;;;;;;1.05;0.60;;;20.20;62.50;;;;;;5058317;28;20028;-62
2022/06/07 07:58:52;;;;;;;5.40;1.08;;;20.40;62.30;;;;;;5060089;28;20040;-61
2022/06/07 08:01:21;;;;;;;0.73;0.50;;;20.60;62.20;;;;;;5052853;28;20033;-61
2022/06/07 08:03:48;;;;;;;1.45;0.60;;;20.80;61.60;;;;;;5051997;28;20033;-62
2022/06/07 08:06:17;;;;;;;1.25;0.60;;;21.00;61.40;;;;;;5053893;28;20108;-61
2022/06/07 08:08:47;;;;;;;0.60;0.60;;;21.20;60.30;;;;;;5052369;28;20624;-62
2022/06/07 08:11:13;;;;;;;3.53;0.60;;;21.40;59.70;;;;;;5051243;28;20097;-61
2022/06/07 08:13:39;;;;;;;1.10;0.60;;;21.50;59.20;;;;;;5051281;28;20096;-62
2022/06/07 08:16:06;;;;;;;1.17;0.60;;;21.60;58.80;;;;;;5055545;28;20093;-62
2022/06/07 08:18:33;;;;;;;3.00;0.68;;;21.60;58.40;;;;;;5057742;28;20033;-62
2022/06/07 08:21:08;;;;;;;1.45;1.13;;;21.60;58.30;;;;;;5044025;28;20266;-61
2022/06/07 08:23:35;;;;;;;3.28;0.70;;;21.60;57.70;;;;;;5051430;28;20029;-62
2022/06/07 08:26:04;;;;;;;1.50;0.70;;;21.60;58.10;;;;;;5057238;28;20025;-62
2022/06/07 08:28:31;;;;;;;3.50;0.70;;;21.60;58.30;;;;;;5055094;28;20118;-61
2022/06/07 08:30:57;;;;;;;2.30;0.98;;;21.60;58.50;;;;;;5057280;28;20030;-62
2022/06/07 08:39:03;;;;;;;6.55;0.70;;;21.80;57.80;;;;;;5058488;28;20040;-61
2022/06/07 08:41:43;;;;;;;1.10;0.77;;;22.00;58.00;;;;;;5056750;28;20021;-62
2022/06/07 08:44:40;;;;;;;1.55;0.60;;;22.00;57.10;;;;;;5055464;28;20041;-62
2022/06/07 08:47:17;;;;;;;2.95;0.70;;;22.00;56.70;;;;;;5056408;28;20029;-62
2022/06/07 08:49:43;;;;;;;1.27;0.60;;;21.90;56.50;;;;;;5047998;28;20026;-61
2022/06/07 08:52:19;;;;;;;2.65;0.70;;;21.90;57.10;;;;;;5056957;28;20398;-62
2022/06/07 08:54:45;;;;;;;1.13;0.60;;;22.00;56.10;;;;;;5064886;28;20025;-61
2022/06/07 08:57:25;;;;;;;0.73;0.50;;;22.00;55.90;;;;;;5061242;28;20036;-63
2022/06/07 08:59:55;;;;;;;0.77;0.73;;;22.10;54.30;;;;;;5055939;28;20040;-62
2022/06/07 09:02:53;;;;;;;2.80;0.60;;;22.20;55.10;;;;;;5057854;28;20032;-62
2022/06/07 09:05:19;;;;;;;3.08;0.70;;;22.30;55.20;;;;;;5023834;28;20471;-63
2022/06/07 09:07:45;;;;;;;2.67;0.70;;;22.40;54.60;;;;;;5057742;28;20041;-62
2022/06/07 09:13:05;;;;;;;6.00;0.60;;;22.50;52.80;;;;;;5059549;28;20102;-62
2022/06/07 09:15:34;;;;;;;1.33;0.70;;;22.50;53.00;;;;;;5043821;28;20033;-62
2022/06/07 09:18:03;;;;;;;1.15;0.60;;;22.50;52.50;;;;;;5058090;28;20025;-63
2022/06/07 09:20:41;;;;;;;1.85;0.52;;;22.50;51.80;;;;;;5052366;28;20111;-62
2022/06/07 09:23:31;;;;;;;2.47;0.75;;;22.50;52.20;;;;;;5061097;28;20515;-63
2022/06/07 09:26:10;;;;;;;1.10;0.52;;;22.50;51.30;;;;;;5047824;28;20037;-62
2022/06/07 09:28:36;;;;;;;0.65;0.50;;;22.50;52.70;;;;;;4965164;28;20079;-63
2022/06/07 09:31:10;;;;;;;2.85;0.68;;;22.60;53.20;;;;;;5053838;28;20025;-64
2022/06/07 09:33:48;;;;;;;1.20;0.60;;;22.70;51.90;;;;;;5051378;28;20047;-62
2022/06/07 09:36:25;;;;;;;1.23;0.68;;;22.80;52.00;;;;;;5052179;28;20063;-62
2022/06/07 09:39:18;;;;;;;1.13;0.55;;;22.80;51.60;;;;;;5048397;28;20052;-63
2022/06/07 09:41:51;;;;;;;1.23;0.63;;;22.90;51.60;;;;;;5052233;28;20051;-62
2022/06/07 09:44:25;;;;;;;1.43;0.57;;;23.00;51.20;;;;;;5054792;28;20037;-63
2022/06/07 09:47:06;;;;;;;1.23;0.65;;;23.10;51.10;;;;;;5056545;28;20457;-62
2022/06/07 09:49:41;;;;;;;0.45;0.45;;;23.20;50.10;;;;;;5050272;28;20056;-62
2022/06/07 09:52:12;;;;;;;1.75;0.47;;;23.20;50.10;;;;;;5052423;28;20033;-62
2022/06/07 09:54:42;;;;;;;1.25;0.50;;;23.30;50.70;;;;;;5050550;28;20048;-62
2022/06/07 09:57:26;;;;;;;0.93;0.40;;;23.40;50.00;;;;;;5052918;28;20048;-62
2022/06/07 10:00:06;;;;;;;;;;;23.40;49.10;;;;;;5051962;28;20029;-62
2022/06/07 10:02:53;;;;;;;0.60;0.47;;;23.40;50.60;;;;;;5051458;28;19936;-63
2022/06/07 10:05:26;;;;;;;0.80;0.50;;;23.40;49.90;;;;;;5056685;28;20233;-63
2022/06/07 10:07:54;;;;;;;2.38;0.80;;;23.40;49.90;;;;;;5028364;28;20028;-62
2022/06/07 10:10:33;;;;;;;1.65;0.60;;;23.50;49.70;;;;;;5059265;28;20037;-63
2022/06/07 10:13:27;;;;;;;3.72;0.63;;;23.50;49.20;;;;;;5056749;28;20016;-63
2022/06/07 10:16:09;;;;;;;1.45;0.50;;;23.70;48.30;;;;;;5055474;28;20036;-63
2022/06/07 10:18:47;;;;;;;0.52;0.40;;;23.90;49.60;;;;;;5034751;28;20017;-62
2022/06/07 10:21:18;;;;;;;0.82;0.50;;;24.00;49.30;;;;;;5060699;28;20037;-62
2022/06/07 10:24:12;;;;;;;1.45;0.57;;;24.20;48.00;;;;;;5055794;28;20551;-63
2022/06/07 10:26:46;;;;;;;3.53;0.75;;;24.30;46.70;;;;;;5052796;28;20021;-63
2022/06/07 10:29:59;;;;;;;0.82;0.50;;;24.30;46.80;;;;;;5053470;28;20080;-63
2022/06/07 10:32:46;;;;;;;1.35;0.60;;;24.30;46.70;;;;;;5046882;28;20037;-62
2022/06/07 10:35:21;;;;;;;1.65;0.57;;;24.40;47.20;;;;;;5050304;28;20528;-62
2022/06/07 10:37:56;;;;;;;1.65;0.40;;;24.40;46.00;;;;;;5052832;28;20048;-63
2022/06/07 10:40:37;;;;;;;4.22;0.60;;;24.30;46.30;;;;;;5049863;28;20664;-62
2022/06/07 10:43:02;;;;;;;2.72;0.63;;;24.30;44.90;;;;;;5045292;28;20050;-63
2022/06/07 10:45:43;;;;;;;0.95;0.60;;;24.20;45.70;;;;;;5051959;28;20044;-63
2022/06/07 10:48:28;;;;;;;1.63;1.00;;;24.10;45.30;;;;;;5043893;28;20033;-62
2022/06/07 10:51:06;;;;;;;1.27;0.70;;;24.00;45.40;;;;;;5061047;28;20031;-62
2022/06/07 10:53:46;;;;;;;1.23;0.50;;;24.00;45.30;;;;;;5057969;28;20081;-62
2022/06/07 10:56:35;;;;;;;0.88;0.50;;;23.90;45.60;;;;;;5051622;28;20028;-62
2022/06/07 10:59:08;;;;;;;3.30;0.80;;;23.80;44.90;;;;;;5058597;28;20025;-63
2022/06/07 11:01:43;;;;;;;2.40;0.57;;;23.80;46.00;;;;;;5053430;28;20026;-64
2022/06/07 11:10:21;;;;;;;0.70;0.50;;;23.70;46.40;;;;;;5064116;28;20042;-62
2022/06/07 11:13:06;;;;;;;0.57;0.50;;;23.80;46.70;;;;;;5054448;28;20059;-63
2022/06/07 11:15:54;;;;;;;0.95;0.40;;;23.90;46.50;;;;;;5052103;28;20373;-65
2022/06/07 11:18:25;;;;;;;0.82;0.45;;;24.00;46.20;;;;;;5050473;28;20029;-62
2022/06/07 11:21:03;;;;;;;0.80;0.52;;;24.00;46.30;;;;;;5060789;28;20021;-63
2022/06/07 11:23:43;;;;;;;0.57;0.40;;;24.10;44.90;;;;;;5059298;28;20047;-63
2022/06/07 11:26:15;;;;;;;1.73;0.50;;;24.20;45.70;;;;;;5061408;28;20037;-62
2022/06/07 11:28:41;;;;;;;0.93;0.50;;;24.10;46.00;;;;;;5059976;28;20025;-63
2022/06/07 11:31:27;;;;;;;1.02;0.70;;;24.20;46.20;;;;;;5058721;28;21006;-63
2022/06/07 11:33:53;;;;;;;0.63;0.50;;;24.20;46.60;;;;;;5045326;28;20057;-65
2022/06/07 11:36:24;;;;;;;0.98;0.50;;;24.40;46.00;;;;;;5058301;28;20058;-62
2022/06/07 11:39:04;;;;;;;0.68;0.50;;;24.50;47.00;;;;;;5058292;28;20102;-63
2022/06/07 11:41:42;;;;;;;0.68;0.40;;;24.70;46.40;;;;;;5061125;28;20036;-63
2022/06/07 11:44:08;;;;;;;1.13;0.73;;;25.00;46.00;;;;;;5057237;28;20037;-62
2022/06/07 11:46:33;;;;;;;1.55;0.50;;;25.00;46.10;;;;;;5058341;28;20037;-63
2022/06/07 11:49:21;;;;;;;1.05;0.47;;;25.10;45.70;;;;;;5064099;28;20025;-62
2022/06/07 11:51:59;;;;;;;0.70;0.52;;;25.00;45.60;;;;;;5055875;28;20051;-63
2022/06/07 11:54:45;;;;;;;2.70;0.40;;;25.00;44.20;;;;;;5058119;28;20032;-62
2022/06/07 11:57:41;;;;;;;0.93;0.50;;;25.00;43.70;;;;;;5038024;28;20045;-63
2022/06/07 12:00:19;;;;;;;3.15;0.50;;;25.00;43.80;;;;;;5038097;28;20049;-63
2022/06/07 12:03:11;;;;;;;2.78;0.63;;;25.00;44.80;;;;;;5057333;28;20025;-62
2022/06/07 12:05:45;;;;;;;2.03;0.60;;;25.00;43.40;;;;;;5049839;28;20059;-63
2022/06/07 12:08:23;;;;;;;3.25;0.40;;;25.20;43.40;;;;;;5063015;28;20021;-62
2022/06/07 12:11:20;;;;;;;1.40;0.40;;;25.20;43.00;;;;;;5039868;28;20021;-62
2022/06/07 12:13:53;;;;;;;0.55;0.43;;;25.30;43.30;;;;;;5054257;28;20586;-63
2022/06/07 12:16:36;;;;;;;2.63;1.00;;;25.40;43.80;;;;;;5054716;28;20017;-63
2022/06/07 12:19:23;;;;;;;0.93;0.60;;;25.50;44.00;;;;;;5051523;28;20337;-63
2022/06/07 12:22:12;;;;;;;0.80;0.43;;;25.50;44.30;;;;;;5053889;28;20784;-62
2022/06/07 12:24:54;;;;;;;1.58;0.47;;;25.70;43.50;;;;;;5064364;28;20099;-62
2022/06/07 12:27:24;;;;;;;1.52;0.63;;;25.90;43.00;;;;;;5054608;28;20036;-62
2022/06/07 12:29:54;;;;;;;1.08;0.50;;;26.00;43.90;;;;;;5047216;28;20029;-63
2022/06/07 12:32:31;;;;;;;1.42;0.60;;;26.20;43.50;;;;;;5051065;28;20032;-63
2022/06/07 12:35:16;;;;;;;1.15;0.55;;;26.30;43.00;;;;;;5051687;28;20080;-62
2022/06/07 12:37:46;;;;;;;1.65;0.43;;;26.50;41.70;;;;;;5051845;28;20397;-62
2022/06/07 12:40:27;;;;;;;0.60;0.40;;;26.60;43.70;;;;;;5058761;28;20055;-63
2022/06/07 12:42:53;;;;;;;0.50;0.32;;;26.90;40.60;;;;;;5056856;28;20047;-61
2022/06/07 12:45:27;;;;;;;1.10;0.50;;;27.00;41.70;;;;;;5059971;28;20036;-62
2022/06/07 12:48:08;;;;;;;0.90;0.40;;;27.10;41.80;;;;;;5060188;28;20033;-62
2022/06/07 12:50:38;;;;;;;1.67;0.63;;;27.20;40.50;;;;;;5057730;28;20025;-62
2022/06/07 12:53:04;;;;;;;0.70;0.50;;;27.20;39.70;;;;;;5055808;28;20045;-63
2022/06/07 12:55:33;;;;;;;1.38;0.63;;;27.20;40.10;;;;;;5053627;28;20913;-63
2022/06/07 12:58:19;;;;;;;3.80;0.65;;;27.00;40.40;;;;;;5055999;28;20052;-63
2022/06/07 13:00:47;;;;;;;0.60;0.50;;;26.80;39.30;;;;;;5058222;28;20025;-63
2022/06/07 13:03:20;;;;;;;1.15;0.40;;;26.60;39.30;;;;;;5059605;28;20033;-63
2022/06/07 13:05:46;;;;;;;2.07;0.67;;;26.50;39.60;;;;;;5051875;28;20021;-63
2022/06/07 13:08:24;;;;;;;0.63;0.50;;;26.30;40.00;;;;;;5060569;28;20036;-63
2022/06/07 13:10:50;;;;;;;1.17;0.70;;;26.10;39.90;;;;;;5052236;28;20059;-63
2022/06/07 13:13:26;;;;;;;0.90;0.50;;;25.90;40.70;;;;;;5038818;28;20033;-63
2022/06/07 13:15:58;;;;;;;1.10;0.60;;;25.80;40.70;;;;;;5060591;28;20427;-64
2022/06/07 13:18:28;;;;;;;3.53;1.17;;;25.70;40.80;;;;;;5057447;28;20878;-64
2022/06/07 13:21:19;;;;;;;1.05;0.70;;;25.60;40.80;;;;;;5054849;28;20068;-63
2022/06/07 13:23:50;;;;;;;1.13;0.50;;;25.60;40.70;;;;;;5055684;28;20055;-63
2022/06/07 13:26:22;;;;;;;1.05;0.60;;;25.60;41.90;;;;;;5053933;28;20021;-63
2022/06/07 13:29:02;;;;;;;1.70;0.60;;;25.60;42.50;;;;;;5059660;28;20025;-62
2022/06/07 13:31:44;;;;;;;0.52;0.43;;;25.70;41.20;;;;;;5052426;28;20388;-63
2022/06/07 13:34:19;;;;;;;2.55;0.47;;;25.80;41.60;;;;;;5066194;28;20053;-62